createdAt,value
2023-01-13T00:00:25.173Z,4.63
2023-01-13T00:01:25.235Z,4.64
2023-01-13T00:02:25.811Z,4.66
2023-01-13T00:03:26.505Z,4.63
2023-01-13T00:04:27.420Z,4.66
2023-01-13T00:05:27.883Z,4.64
2023-01-13T00:06:29.311Z,4.63
2023-01-13T00:07:29.066Z,4.66
2023-01-13T00:08:29.872Z,4.67
2023-01-13T00:09:30.902Z,4.71
2023-01-13T00:10:32.230Z,4.68
2023-01-13T00:11:32.944Z,4.63
2023-01-13T00:12:33.226Z,4.56
2023-01-13T00:13:33.994Z,4.61
2023-01-13T00:14:34.386Z,4.52
2023-01-13T00:15:35.142Z,4.52
2023-01-13T00:16:35.886Z,4.57
2023-01-13T00:17:36.267Z,4.56
2023-01-13T00:18:37.254Z,4.56
2023-01-13T00:19:37.344Z,4.57
2023-01-13T00:20:38.311Z,4.58
2023-01-13T00:21:38.656Z,4.52
2023-01-13T00:22:38.645Z,4.57
2023-01-13T00:23:39.640Z,4.66
2023-01-13T00:24:40.033Z,4.7
2023-01-13T00:25:40.752Z,4.67
2023-01-13T00:26:42.156Z,4.63
2023-01-13T00:27:43.199Z,4.7
2023-01-13T00:28:43.220Z,4.68
2023-01-13T00:29:43.925Z,4.71
2023-01-13T00:30:44.593Z,4.7
2023-01-13T00:31:45.365Z,4.78
2023-01-13T00:32:45.761Z,4.82
2023-01-13T00:33:46.252Z,4.79
2023-01-13T00:34:46.945Z,4.84
2023-01-13T00:35:48.273Z,4.82
2023-01-13T00:36:48.977Z,4.82
2023-01-13T00:37:49.369Z,4.83
2023-01-13T00:38:49.747Z,4.87
2023-01-13T00:39:50.551Z,4.87
2023-01-13T00:40:50.308Z,4.87
2023-01-13T00:41:51.724Z,4.84
2023-01-13T00:42:53.083Z,4.76
2023-01-13T00:43:54.199Z,4.86
2023-01-13T00:44:55.157Z,4.76
2023-01-13T00:45:55.871Z,4.86
2023-01-13T00:46:56.520Z,4.92
2023-01-13T00:47:57.498Z,4.78
2023-01-13T00:48:58.166Z,4.83
2023-01-13T00:49:58.886Z,4.97
2023-01-13T00:50:59.872Z,4.79
2023-01-13T00:52:00.317Z,4.76
2023-01-13T00:53:01.436Z,4.82
2023-01-13T00:54:02.139Z,4.79
2023-01-13T00:55:02.844Z,4.86
2023-01-13T00:56:03.318Z,4.82
2023-01-13T00:57:04.429Z,4.84
2023-01-13T00:58:04.803Z,4.82
2023-01-13T00:59:05.818Z,4.76
2023-01-13T01:00:06.523Z,4.82
2023-01-13T01:01:08.206Z,4.82
2023-01-13T01:02:08.796Z,4.78
2023-01-13T01:03:08.717Z,4.75
2023-01-13T01:04:09.430Z,4.79
2023-01-13T01:05:09.483Z,4.83
2023-01-13T01:06:10.847Z,4.86
2023-01-13T01:07:11.239Z,4.78
2023-01-13T01:08:11.929Z,4.89
2023-01-13T01:09:12.584Z,4.92
2023-01-13T01:10:13.277Z,4.76
2023-01-13T01:11:13.966Z,4.86
2023-01-13T01:12:14.678Z,4.82
2023-01-13T01:13:15.367Z,4.86
2023-01-13T01:14:16.117Z,4.89
2023-01-13T01:15:16.755Z,4.84
2023-01-13T01:16:18.061Z,4.87
2023-01-13T01:17:17.356Z,4.84
2023-01-13T01:18:18.472Z,4.89
2023-01-13T01:19:19.285Z,4.9
2023-01-13T01:20:20.340Z,4.84
2023-01-13T01:21:21.064Z,4.94
2023-01-13T01:22:21.791Z,4.87
2023-01-13T01:23:22.183Z,4.79
2023-01-13T01:24:22.338Z,4.86
2023-01-13T01:25:22.706Z,4.82
2023-01-13T01:26:23.430Z,4.74
2023-01-13T01:27:24.089Z,4.71
2023-01-13T01:28:24.575Z,4.63
2023-01-13T01:29:24.587Z,4.74
2023-01-13T01:30:24.967Z,4.74
2023-01-13T01:31:26.273Z,4.64
2023-01-13T01:32:25.785Z,4.67
2023-01-13T01:33:27.090Z,4.7
2023-01-13T01:34:27.773Z,4.67
2023-01-13T01:35:28.447Z,4.67
2023-01-13T01:36:29.151Z,4.67
2023-01-13T01:37:29.824Z,4.78
2023-01-13T01:38:30.504Z,4.71
2023-01-13T01:39:31.188Z,4.64
2023-01-13T01:40:31.927Z,4.64
2023-01-13T01:41:32.016Z,4.66
2023-01-13T01:42:32.718Z,4.63
2023-01-13T01:43:33.048Z,4.58
2023-01-13T01:44:34.072Z,4.64
2023-01-13T01:45:35.043Z,4.64
2023-01-13T01:46:35.955Z,4.57
2023-01-13T01:47:36.903Z,4.52
2023-01-13T01:48:36.884Z,4.58
2023-01-13T01:49:37.296Z,4.57
2023-01-13T01:50:37.673Z,4.56
2023-01-13T01:51:38.641Z,4.6
2023-01-13T01:52:39.004Z,4.48
2023-01-13T01:53:39.923Z,4.53
2023-01-13T01:54:39.691Z,4.57
2023-01-13T01:55:41.072Z,4.45
2023-01-13T01:56:42.086Z,4.49
2023-01-13T01:57:42.214Z,4.52
2023-01-13T01:58:42.608Z,4.52
2023-01-13T01:59:43.646Z,4.53
2023-01-13T02:00:44.213Z,4.53
2023-01-13T02:01:44.992Z,4.56
2023-01-13T02:02:44.273Z,4.58
2023-01-13T02:03:45.332Z,4.6
2023-01-13T02:04:46.114Z,4.66
2023-01-13T02:05:47.782Z,4.61
2023-01-13T02:06:48.488Z,4.7
2023-01-13T02:07:48.877Z,4.75
2023-01-13T02:08:49.907Z,4.75
2023-01-13T02:09:51.259Z,4.82
2023-01-13T02:10:51.959Z,4.86
2023-01-13T02:11:52.371Z,4.86
2023-01-13T02:12:53.787Z,4.83
2023-01-13T02:13:54.460Z,4.75
2023-01-13T02:14:55.470Z,4.75
2023-01-13T02:15:55.551Z,4.79
2023-01-13T02:16:56.351Z,4.83
2023-01-13T02:17:57.099Z,4.92
2023-01-13T02:18:57.564Z,4.82
2023-01-13T02:19:58.215Z,4.92
2023-01-13T02:20:58.953Z,4.87
2023-01-13T02:22:00.648Z,4.92
2023-01-13T02:23:00.723Z,4.83
2023-01-13T02:24:02.076Z,4.9
2023-01-13T02:25:02.730Z,4.83
2023-01-13T02:26:03.472Z,4.82
2023-01-13T02:27:03.948Z,4.82
2023-01-13T02:28:04.714Z,4.97
2023-01-13T02:29:04.825Z,5.05
2023-01-13T02:30:05.907Z,5
2023-01-13T02:31:06.320Z,4.97
2023-01-13T02:32:07.079Z,4.98
2023-01-13T02:33:07.787Z,5
2023-01-13T02:34:07.933Z,4.97
2023-01-13T02:35:09.129Z,5.08
2023-01-13T02:36:08.691Z,5.1
2023-01-13T02:37:09.387Z,5.02
2023-01-13T02:38:10.089Z,5.02
2023-01-13T02:39:11.442Z,5.01
2023-01-13T02:40:12.476Z,5.01
2023-01-13T02:41:13.455Z,4.94
2023-01-13T02:42:13.793Z,4.98
2023-01-13T02:43:14.047Z,5.05
2023-01-13T02:44:15.039Z,5.13
2023-01-13T02:45:16.034Z,5.1
2023-01-13T02:46:16.347Z,5.1
2023-01-13T02:47:16.761Z,5.18
2023-01-13T02:48:17.524Z,5.07
2023-01-13T02:49:18.226Z,5.18
2023-01-13T02:50:19.195Z,5.22
2023-01-13T02:51:19.877Z,5.2
2023-01-13T02:52:20.541Z,5.33
2023-01-13T02:53:21.600Z,5.26
2023-01-13T02:54:21.614Z,5.26
2023-01-13T02:55:23.298Z,5.28
2023-01-13T02:56:24.035Z,5.37
2023-01-13T02:57:24.084Z,5.37
2023-01-13T02:58:24.779Z,5.37
2023-01-13T02:59:25.834Z,5.33
2023-01-13T03:00:26.464Z,5.38
2023-01-13T03:01:27.764Z,5.37
2023-01-13T03:02:27.714Z,5.41
2023-01-13T03:03:28.432Z,5.44
2023-01-13T03:04:29.234Z,5.46
2023-01-13T03:05:30.168Z,5.44
2023-01-13T03:06:30.085Z,5.43
2023-01-13T03:07:30.758Z,5.55
2023-01-13T03:08:31.686Z,5.52
2023-01-13T03:09:32.593Z,5.54
2023-01-13T03:10:32.948Z,5.55
2023-01-13T03:11:33.949Z,5.41
2023-01-13T03:12:34.865Z,5.4
2023-01-13T03:13:35.817Z,5.41
2023-01-13T03:14:36.317Z,5.49
2023-01-13T03:15:36.845Z,5.46
2023-01-13T03:16:36.743Z,5.43
2023-01-13T03:17:37.446Z,5.44
2023-01-13T03:18:38.355Z,5.44
2023-01-13T03:19:38.568Z,5.51
2023-01-13T03:20:38.792Z,5.47
2023-01-13T03:21:38.697Z,5.49
2023-01-13T03:22:39.351Z,5.54
2023-01-13T03:23:40.292Z,5.51
2023-01-13T03:24:41.066Z,5.62
2023-01-13T03:25:41.560Z,5.64
2023-01-13T03:26:42.493Z,5.59
2023-01-13T03:27:42.431Z,5.64
2023-01-13T03:28:43.680Z,5.74
2023-01-13T03:29:43.932Z,5.77
2023-01-13T03:30:44.622Z,5.9
2023-01-13T03:31:44.660Z,5.8
2023-01-13T03:32:45.863Z,5.84
2023-01-13T03:33:46.382Z,5.92
2023-01-13T03:34:46.570Z,5.88
2023-01-13T03:35:46.784Z,5.91
2023-01-13T03:36:46.733Z,5.97
2023-01-13T03:37:46.649Z,6.05
2023-01-13T03:38:48.159Z,6.06
2023-01-13T03:39:48.815Z,6.13
2023-01-13T03:40:49.021Z,5.99
2023-01-13T03:41:49.248Z,6.09
2023-01-13T03:42:49.929Z,6.02
2023-01-13T03:43:51.177Z,6.05
2023-01-13T03:44:52.142Z,6.05
2023-01-13T03:45:52.298Z,6.13
2023-01-13T03:46:53.162Z,6.17
2023-01-13T03:47:54.430Z,6.15
2023-01-13T03:48:54.684Z,6.19
2023-01-13T03:49:55.042Z,6.1
2023-01-13T03:50:55.672Z,6.1
2023-01-13T03:51:56.573Z,6.1
2023-01-13T03:52:57.492Z,6.12
2023-01-13T03:53:58.002Z,6.16
2023-01-13T03:54:58.735Z,6.07
2023-01-13T03:55:59.434Z,6.2
2023-01-13T03:57:00.653Z,6.13
2023-01-13T03:58:01.817Z,6.1
2023-01-13T03:59:02.164Z,6.16
2023-01-13T04:00:02.442Z,6.19
2023-01-13T04:01:03.525Z,6.22
2023-01-13T04:02:04.694Z,6.25
2023-01-13T04:03:04.217Z,6.34
2023-01-13T04:04:05.399Z,6.31
2023-01-13T04:05:05.575Z,6.29
2023-01-13T04:06:06.781Z,6.2
2023-01-13T04:07:07.090Z,6.25
2023-01-13T04:08:07.686Z,6.29
2023-01-13T04:09:07.303Z,6.22
2023-01-13T04:10:08.393Z,6.31
2023-01-13T04:11:08.309Z,6.29
2023-01-13T04:12:09.449Z,6.25
2023-01-13T04:13:09.365Z,6.32
2023-01-13T04:14:09.862Z,6.35
2023-01-13T04:15:10.623Z,6.35
2023-01-13T04:16:11.356Z,6.36
2023-01-13T04:17:11.324Z,6.36
2023-01-13T04:18:12.560Z,6.36
2023-01-13T04:19:12.781Z,6.36
2023-01-13T04:20:13.723Z,6.35
2023-01-13T04:21:14.121Z,6.39
2023-01-13T04:22:15.035Z,6.36
2023-01-13T04:23:14.974Z,6.28
2023-01-13T04:24:15.494Z,6.32
2023-01-13T04:25:16.132Z,6.36
2023-01-13T04:26:16.350Z,6.36
2023-01-13T04:27:17.572Z,6.35
2023-01-13T04:28:18.537Z,6.36
2023-01-13T04:29:21.611Z,6.35
2023-01-13T04:30:19.591Z,6.36
2023-01-13T04:31:20.196Z,6.35
2023-01-13T04:32:20.493Z,6.32
2023-01-13T04:33:21.453Z,6.35
2023-01-13T04:34:21.689Z,6.34
2023-01-13T04:35:22.182Z,6.41
2023-01-13T04:36:22.139Z,6.35
2023-01-13T04:37:22.841Z,6.38
2023-01-13T04:38:23.402Z,6.32
2023-01-13T04:39:23.625Z,6.32
2023-01-13T04:40:23.566Z,6.38
2023-01-13T04:41:24.059Z,6.39
2023-01-13T04:42:23.977Z,6.36
2023-01-13T04:43:24.634Z,6.39
2023-01-13T04:44:25.885Z,6.35
2023-01-13T04:45:26.596Z,6.39
2023-01-13T04:46:26.892Z,6.39
2023-01-13T04:47:27.708Z,6.44
2023-01-13T04:48:27.914Z,6.46
2023-01-13T04:49:28.591Z,6.38
2023-01-13T04:50:28.856Z,6.34
2023-01-13T04:51:29.405Z,6.36
2023-01-13T04:52:30.100Z,6.38
2023-01-13T04:53:30.758Z,6.32
2023-01-13T04:54:31.679Z,6.36
2023-01-13T04:55:31.719Z,6.38
2023-01-13T04:56:32.642Z,6.49
2023-01-13T04:57:33.559Z,6.46
2023-01-13T04:58:33.505Z,6.5
2023-01-13T04:59:34.923Z,6.47
2023-01-13T05:00:34.903Z,6.43
2023-01-13T05:01:35.356Z,6.52
2023-01-13T05:02:35.602Z,6.53
2023-01-13T05:03:36.533Z,6.46
2023-01-13T05:04:36.560Z,6.36
2023-01-13T05:05:37.115Z,6.39
2023-01-13T05:06:37.752Z,6.36
2023-01-13T05:07:38.131Z,6.41
2023-01-13T05:08:39.377Z,6.38
2023-01-13T05:09:39.584Z,6.39
2023-01-13T05:10:40.239Z,6.38
2023-01-13T05:11:41.476Z,6.39
2023-01-13T05:12:41.413Z,6.36
2023-01-13T05:13:42.054Z,6.39
2023-01-13T05:14:42.723Z,6.46
2023-01-13T05:15:43.523Z,6.38
2023-01-13T05:16:44.175Z,6.39
2023-01-13T05:17:44.408Z,6.39
2023-01-13T05:18:45.357Z,6.44
2023-01-13T05:19:45.989Z,6.39
2023-01-13T05:20:46.375Z,6.41
2023-01-13T05:21:47.306Z,6.49
2023-01-13T05:22:48.499Z,6.46
2023-01-13T05:23:48.750Z,6.36
2023-01-13T05:24:49.392Z,6.29
2023-01-13T05:25:50.476Z,6.36
2023-01-13T05:26:49.711Z,6.39
2023-01-13T05:27:50.625Z,6.36
2023-01-13T05:28:51.540Z,6.34
2023-01-13T05:29:52.196Z,6.32
2023-01-13T05:30:52.945Z,6.36
2023-01-13T05:31:53.366Z,6.39
2023-01-13T05:32:54.021Z,6.39
2023-01-13T05:33:54.252Z,6.38
2023-01-13T05:34:54.922Z,6.38
2023-01-13T05:35:56.243Z,6.34
2023-01-13T05:36:56.176Z,6.34
2023-01-13T05:37:56.512Z,6.34
2023-01-13T05:38:57.739Z,6.36
2023-01-13T05:39:57.677Z,6.36
2023-01-13T05:40:59.878Z,6.39
2023-01-13T05:41:59.084Z,6.39
2023-01-13T05:42:59.277Z,6.54
2023-01-13T05:43:59.465Z,6.44
2023-01-13T05:44:59.703Z,6.56
2023-01-13T05:46:00.545Z,6.44
2023-01-13T05:47:01.055Z,6.54
2023-01-13T05:48:01.581Z,6.39
2023-01-13T05:49:02.497Z,6.39
2023-01-13T05:50:02.731Z,6.46
2023-01-13T05:51:03.426Z,6.39
2023-01-13T05:52:04.386Z,6.39
2023-01-13T05:53:04.731Z,6.34
2023-01-13T05:54:05.665Z,6.35
2023-01-13T05:55:06.298Z,6.36
2023-01-13T05:56:06.599Z,6.31
2023-01-13T05:57:06.782Z,6.39
2023-01-13T05:58:07.981Z,6.36
2023-01-13T05:59:08.913Z,6.41
2023-01-13T06:00:09.634Z,6.38
2023-01-13T06:01:10.903Z,6.35
2023-01-13T06:02:11.305Z,6.36
2023-01-13T06:03:12.157Z,6.41
2023-01-13T06:04:12.496Z,6.43
2023-01-13T06:05:12.852Z,6.39
2023-01-13T06:06:13.473Z,6.44
2023-01-13T06:07:13.413Z,6.46
2023-01-13T06:08:13.640Z,6.47
2023-01-13T06:09:14.566Z,6.41
2023-01-13T06:10:15.205Z,6.54
2023-01-13T06:11:16.146Z,6.44
2023-01-13T06:12:17.079Z,6.6
2023-01-13T06:13:18.297Z,6.59
2023-01-13T06:14:18.273Z,6.65
2023-01-13T06:15:19.521Z,6.59
2023-01-13T06:16:19.873Z,6.62
2023-01-13T06:17:20.509Z,6.67
2023-01-13T06:18:20.431Z,6.64
2023-01-13T06:19:21.958Z,6.67
2023-01-13T06:20:22.573Z,6.64
2023-01-13T06:21:23.018Z,6.72
2023-01-13T06:22:23.968Z,6.57
2023-01-13T06:23:24.203Z,6.62
2023-01-13T06:24:25.166Z,6.65
2023-01-13T06:25:26.119Z,6.59
2023-01-13T06:26:26.930Z,6.71
2023-01-13T06:27:27.607Z,6.72
2023-01-13T06:28:27.564Z,6.71
2023-01-13T06:29:28.225Z,6.72
2023-01-13T06:30:29.266Z,6.59
2023-01-13T06:31:29.922Z,6.57
2023-01-13T06:32:30.716Z,6.74
2023-01-13T06:33:31.466Z,6.7
2023-01-13T06:34:31.685Z,6.72
2023-01-13T06:35:32.889Z,6.68
2023-01-13T06:36:33.090Z,6.71
2023-01-13T06:37:34.015Z,6.68
2023-01-13T06:38:35.217Z,6.59
2023-01-13T06:39:35.715Z,6.59
2023-01-13T06:40:36.383Z,6.6
2023-01-13T06:41:36.897Z,6.57
2023-01-13T06:42:36.861Z,6.62
2023-01-13T06:43:37.540Z,6.59
2023-01-13T06:44:38.758Z,6.65
2023-01-13T06:45:39.409Z,6.57
2023-01-13T06:46:39.557Z,6.6
2023-01-13T06:47:39.980Z,6.57
2023-01-13T06:48:41.554Z,6.44
2023-01-13T06:49:41.208Z,6.46
2023-01-13T06:50:41.131Z,6.56
2023-01-13T06:51:42.377Z,6.46
2023-01-13T06:52:42.871Z,6.57
2023-01-13T06:53:43.089Z,6.54
2023-01-13T06:54:44.000Z,6.49
2023-01-13T06:55:43.944Z,6.43
2023-01-13T06:56:44.946Z,6.54
2023-01-13T06:57:45.145Z,6.49
2023-01-13T06:58:45.564Z,6.46
2023-01-13T06:59:46.181Z,6.5
2023-01-13T07:00:46.923Z,6.52
2023-01-13T07:01:48.353Z,6.35
2023-01-13T07:02:48.672Z,6.38
2023-01-13T07:03:49.141Z,6.38
2023-01-13T07:04:49.389Z,6.38
2023-01-13T07:05:50.642Z,6.34
2023-01-13T07:06:51.053Z,6.34
2023-01-13T07:07:52.003Z,6.32
2023-01-13T07:08:52.417Z,6.35
2023-01-13T07:09:52.761Z,6.36
2023-01-13T07:10:53.094Z,6.44
2023-01-13T07:11:53.091Z,6.38
2023-01-13T07:12:54.014Z,6.39
2023-01-13T07:13:54.935Z,6.38
2023-01-13T07:14:55.157Z,6.39
2023-01-13T07:15:55.383Z,6.38
2023-01-13T07:16:56.577Z,6.41
2023-01-13T07:17:56.867Z,6.38
2023-01-13T07:18:58.089Z,6.47
2023-01-13T07:19:58.317Z,6.46
2023-01-13T07:20:58.830Z,6.36
2023-01-13T07:21:59.507Z,6.39
2023-01-13T07:23:00.453Z,6.47
2023-01-13T07:24:01.104Z,6.46
2023-01-13T07:25:02.354Z,6.41
2023-01-13T07:26:02.910Z,6.43
2023-01-13T07:27:02.989Z,6.36
2023-01-13T07:28:03.645Z,6.41
2023-01-13T07:29:05.008Z,6.38
2023-01-13T07:30:05.545Z,6.46
2023-01-13T07:31:05.771Z,6.49
2023-01-13T07:32:06.368Z,6.5
2023-01-13T07:33:06.385Z,6.49
2023-01-13T07:34:08.603Z,6.47
2023-01-13T07:35:08.547Z,6.5
2023-01-13T07:36:08.808Z,6.43
2023-01-13T07:37:09.173Z,6.54
2023-01-13T07:38:09.716Z,6.59
2023-01-13T07:39:10.225Z,6.57
2023-01-13T07:40:10.723Z,6.65
2023-01-13T07:41:10.668Z,6.6
2023-01-13T07:42:11.305Z,6.59
2023-01-13T07:43:12.044Z,6.6
2023-01-13T07:44:13.004Z,6.6
2023-01-13T07:45:16.370Z,6.62
2023-01-13T07:46:14.848Z,6.67
2023-01-13T07:47:15.278Z,6.68
2023-01-13T07:48:15.871Z,6.7
2023-01-13T07:49:16.088Z,6.7
2023-01-13T07:50:17.020Z,6.74
2023-01-13T07:51:17.584Z,6.71
2023-01-13T07:52:18.525Z,6.72
2023-01-13T07:53:18.719Z,6.72
2023-01-13T07:54:23.289Z,6.72
2023-01-13T07:55:19.998Z,6.67
2023-01-13T07:56:20.224Z,6.62
2023-01-13T07:57:20.955Z,6.7
2023-01-13T07:58:20.605Z,6.67
2023-01-13T07:59:21.849Z,6.72
2023-01-13T08:00:22.847Z,6.57
2023-01-13T08:01:24.709Z,6.59
2023-01-13T08:02:25.843Z,6.59
2023-01-13T08:03:25.704Z,6.6
2023-01-13T08:04:25.921Z,6.62
2023-01-13T08:05:26.935Z,6.6
2023-01-13T08:06:26.906Z,6.62
2023-01-13T08:07:27.988Z,6.64
2023-01-13T08:08:29.185Z,6.6
2023-01-13T08:09:29.431Z,6.59
2023-01-13T08:10:29.404Z,6.53
2023-01-13T08:11:30.061Z,6.59
2023-01-13T08:12:30.286Z,6.59
2023-01-13T08:13:31.019Z,6.64
2023-01-13T08:14:31.529Z,6.65
2023-01-13T08:15:32.797Z,6.59
2023-01-13T08:16:33.061Z,6.6
2023-01-13T08:17:33.365Z,6.57
2023-01-13T08:18:33.917Z,6.57
2023-01-13T08:19:34.413Z,6.7
2023-01-13T08:20:34.929Z,6.71
2023-01-13T08:21:34.861Z,6.65
2023-01-13T08:22:35.795Z,6.77
2023-01-13T08:23:36.492Z,6.7
2023-01-13T08:24:37.723Z,6.71
2023-01-13T08:25:37.958Z,6.85
2023-01-13T08:26:38.187Z,6.83
2023-01-13T08:27:38.859Z,6.8
2023-01-13T08:28:38.908Z,6.89
2023-01-13T08:29:39.581Z,7
2023-01-13T08:30:40.797Z,6.9
2023-01-13T08:31:41.941Z,6.96
2023-01-13T08:32:42.649Z,6.93
2023-01-13T08:33:42.952Z,6.96
2023-01-13T08:34:44.232Z,6.97
2023-01-13T08:35:44.163Z,7.07
2023-01-13T08:36:45.389Z,7.13
2023-01-13T08:37:46.003Z,7.07
2023-01-13T08:38:46.748Z,7.08
2023-01-13T08:39:48.050Z,7.15
2023-01-13T08:40:48.753Z,7.15
2023-01-13T08:41:49.703Z,7.22
2023-01-13T08:42:52.754Z,7.22
2023-01-13T08:43:50.866Z,7.25
2023-01-13T08:44:51.136Z,7.22
2023-01-13T08:45:51.505Z,7.23
2023-01-13T08:46:52.228Z,7.25
2023-01-13T08:47:52.950Z,7.25
2023-01-13T08:48:53.261Z,7.22
2023-01-13T08:49:53.833Z,7.21
2023-01-13T08:50:54.828Z,7.25
2023-01-13T08:51:55.063Z,7.21
2023-01-13T08:52:56.295Z,7.23
2023-01-13T08:53:57.076Z,7.28
2023-01-13T08:54:57.773Z,7.18
2023-01-13T08:55:59.286Z,7.22
2023-01-13T08:56:59.544Z,7.23
2023-01-13T08:58:16.488Z,7.23
2023-01-13T08:59:00.752Z,7.39
2023-01-13T09:00:01.259Z,7.33
2023-01-13T09:01:02.079Z,7.37
2023-01-13T09:02:03.398Z,7.4
2023-01-13T09:03:03.306Z,7.44
2023-01-13T09:04:04.075Z,7.43
2023-01-13T09:05:03.970Z,7.47
2023-01-13T09:06:04.980Z,7.44
2023-01-13T09:07:05.531Z,7.48
2023-01-13T09:08:05.987Z,7.47
2023-01-13T09:09:06.514Z,7.47
2023-01-13T09:10:06.473Z,7.48
2023-01-13T09:11:07.977Z,7.5
2023-01-13T09:12:08.921Z,7.62
2023-01-13T09:13:09.565Z,7.58
2023-01-13T09:14:10.487Z,7.58
2023-01-13T09:15:11.532Z,7.67
2023-01-13T09:16:12.871Z,7.66
2023-01-13T09:17:13.263Z,7.67
2023-01-13T09:18:14.386Z,7.64
2023-01-13T09:19:14.655Z,7.75
2023-01-13T09:20:15.897Z,7.69
2023-01-13T09:21:16.178Z,7.66
2023-01-13T09:22:16.828Z,7.77
2023-01-13T09:23:17.694Z,7.78
2023-01-13T09:24:17.963Z,7.8
2023-01-13T09:25:18.485Z,7.75
2023-01-13T09:26:18.791Z,7.8
2023-01-13T09:27:19.338Z,7.75
2023-01-13T09:28:20.022Z,7.78
2023-01-13T09:29:20.111Z,7.81
2023-01-13T09:30:20.690Z,7.87
2023-01-13T09:31:21.533Z,7.91
2023-01-13T09:32:22.070Z,7.87
2023-01-13T09:33:22.502Z,7.88
2023-01-13T09:34:22.921Z,7.91
2023-01-13T09:35:23.470Z,7.91
2023-01-13T09:36:23.808Z,7.87
2023-01-13T09:37:24.636Z,7.9
2023-01-13T09:38:25.141Z,7.93
2023-01-13T09:39:25.468Z,7.98
2023-01-13T09:40:26.136Z,8.02
2023-01-13T09:41:26.452Z,8.02
2023-01-13T09:42:26.699Z,8.09
2023-01-13T09:43:27.271Z,8.02
2023-01-13T09:44:27.519Z,8.06
2023-01-13T09:45:28.801Z,8.09
2023-01-13T09:46:28.887Z,8.08
2023-01-13T09:47:29.739Z,8.06
2023-01-13T09:48:29.904Z,8.14
2023-01-13T09:49:30.266Z,8.18
2023-01-13T09:50:31.523Z,8.17
2023-01-13T09:51:31.632Z,8.21
2023-01-13T09:52:32.920Z,8.27
2023-01-13T09:53:32.865Z,8.2
2023-01-13T09:54:33.476Z,8.23
2023-01-13T09:55:33.694Z,8.24
2023-01-13T09:56:34.236Z,8.26
2023-01-13T09:57:34.198Z,8.31
2023-01-13T09:58:35.251Z,8.38
2023-01-13T09:59:36.222Z,8.36
2023-01-13T10:00:36.496Z,8.32
2023-01-13T10:01:37.473Z,8.36
2023-01-13T10:02:38.450Z,8.35
2023-01-13T10:03:39.353Z,8.41
2023-01-13T10:04:38.999Z,8.42
2023-01-13T10:05:39.117Z,8.45
2023-01-13T10:06:39.649Z,8.46
2023-01-13T10:07:40.805Z,8.68
2023-01-13T10:08:40.927Z,8.66
2023-01-13T10:09:41.569Z,8.74
2023-01-13T10:10:43.090Z,8.74
2023-01-13T10:11:43.313Z,8.72
2023-01-13T10:12:43.533Z,8.78
2023-01-13T10:13:43.813Z,8.86
2023-01-13T10:14:44.305Z,8.78
2023-01-13T10:15:45.054Z,8.9
2023-01-13T10:16:45.148Z,9
2023-01-13T10:17:46.440Z,9
2023-01-13T10:18:47.057Z,9
2023-01-13T10:19:47.623Z,8.99
2023-01-13T10:20:47.850Z,9.05
2023-01-13T10:21:48.797Z,9.05
2023-01-13T10:22:49.782Z,9.02
2023-01-13T10:23:50.293Z,9.02
2023-01-13T10:24:51.235Z,9.09
2023-01-13T10:25:51.450Z,9.09
2023-01-13T10:26:51.865Z,9.11
2023-01-13T10:27:52.399Z,9.13
2023-01-13T10:28:52.216Z,9.18
2023-01-13T10:29:53.537Z,9.15
2023-01-13T10:30:54.189Z,9.16
2023-01-13T10:31:54.520Z,9.24
2023-01-13T10:32:55.511Z,9.3
2023-01-13T10:33:56.761Z,9.27
2023-01-13T10:34:57.321Z,9.29
2023-01-13T10:35:57.845Z,9.24
2023-01-13T10:36:58.392Z,9.3
2023-01-13T10:37:59.384Z,9.26
2023-01-13T10:38:59.697Z,9.08
2023-01-13T10:40:00.208Z,9.15
2023-01-13T10:41:00.758Z,9.11
2023-01-13T10:42:00.684Z,9.15
2023-01-13T10:43:01.263Z,9.05
2023-01-13T10:44:01.450Z,9.11
2023-01-13T10:45:02.623Z,9.05
2023-01-13T10:46:02.717Z,9.02
2023-01-13T10:47:03.148Z,9.03
2023-01-13T10:48:04.394Z,8.97
2023-01-13T10:49:05.121Z,9.02
2023-01-13T10:50:06.038Z,9.05
2023-01-13T10:51:05.626Z,9.09
2023-01-13T10:52:06.342Z,9
2023-01-13T10:53:06.366Z,9.09
2023-01-13T10:54:06.949Z,9.13
2023-01-13T10:55:07.562Z,9.13
2023-01-13T10:56:08.087Z,9.09
2023-01-13T10:57:08.468Z,9.21
2023-01-13T10:58:08.836Z,9.21
2023-01-13T10:59:09.209Z,9.29
2023-01-13T11:00:10.423Z,9.3
2023-01-13T11:01:10.681Z,9.22
2023-01-13T11:02:30.330Z,9.22
2023-01-13T11:03:11.180Z,9.24
2023-01-13T11:04:11.882Z,9.29
2023-01-13T11:05:12.797Z,9.31
2023-01-13T11:06:13.390Z,9.36
2023-01-13T11:07:13.697Z,9.36
2023-01-13T11:08:14.405Z,9.44
2023-01-13T11:09:15.123Z,9.87
2023-01-13T11:10:15.383Z,9.97
2023-01-13T11:11:16.615Z,10.18
2023-01-13T11:12:16.585Z,10.28
2023-01-13T11:13:17.128Z,10.41
2023-01-13T11:14:17.373Z,10.58
2023-01-13T11:15:18.607Z,10.75
2023-01-13T11:16:19.649Z,10.83
2023-01-13T11:17:19.694Z,10.89
2023-01-13T11:18:19.946Z,10.94
2023-01-13T11:19:20.701Z,10.87
2023-01-13T11:20:20.719Z,10.89
2023-01-13T11:21:22.218Z,10.62
2023-01-13T11:22:21.921Z,10.51
2023-01-13T11:23:23.426Z,10.45
2023-01-13T11:24:24.108Z,10.24
2023-01-13T11:25:25.080Z,10.17
2023-01-13T11:26:25.056Z,10.06
2023-01-13T11:27:25.695Z,10.03
2023-01-13T11:28:26.911Z,9.95
2023-01-13T11:29:27.283Z,9.92
2023-01-13T11:30:28.213Z,9.84
2023-01-13T11:31:28.865Z,9.87
2023-01-13T11:32:29.358Z,9.85
2023-01-13T11:33:30.321Z,9.95
2023-01-13T11:34:30.633Z,9.95
2023-01-13T11:35:31.199Z,9.95
2023-01-13T11:36:31.395Z,10.02
2023-01-13T11:37:32.312Z,10.05
2023-01-13T11:38:33.556Z,9.94
2023-01-13T11:39:34.023Z,9.95
2023-01-13T11:40:34.283Z,9.91
2023-01-13T11:41:35.603Z,9.95
2023-01-13T11:42:36.914Z,9.99
2023-01-13T11:43:36.142Z,10.03
2023-01-13T11:44:36.663Z,10
2023-01-13T11:45:36.924Z,10.06
2023-01-13T11:46:38.333Z,10.06
2023-01-13T11:47:38.702Z,10.27
2023-01-13T11:48:39.391Z,10.41
2023-01-13T11:49:40.504Z,10.48
2023-01-13T11:50:41.035Z,10.68
2023-01-13T11:51:41.381Z,11
2023-01-13T11:52:41.665Z,11.01
2023-01-13T11:53:41.603Z,11.3
2023-01-13T11:54:42.827Z,11.59
2023-01-13T11:55:43.336Z,11.86
2023-01-13T11:56:44.301Z,12.17
2023-01-13T11:57:44.218Z,12.32
2023-01-13T11:58:55.946Z,12.28
2023-01-13T11:59:44.006Z,12.29
2023-01-13T12:00:44.225Z,12.29
2023-01-13T12:01:45.815Z,12.21
2023-01-13T12:02:45.958Z,12.08
2023-01-13T12:03:46.413Z,12.11
2023-01-13T12:04:47.005Z,12.17
2023-01-13T12:05:47.610Z,12.18
2023-01-13T12:06:47.856Z,12.2
2023-01-13T12:07:48.355Z,12.32
2023-01-13T12:08:48.576Z,12.28
2023-01-13T12:09:49.805Z,12.26
2023-01-13T12:10:50.371Z,12.3
2023-01-13T12:11:50.592Z,12.23
2023-01-13T12:12:51.191Z,12.21
2023-01-13T12:13:51.134Z,12.2
2023-01-13T12:14:52.380Z,12.11
2023-01-13T12:15:52.450Z,12.07
2023-01-13T12:16:53.840Z,12
2023-01-13T12:17:53.776Z,11.86
2023-01-13T12:18:54.298Z,11.81
2023-01-13T12:19:54.722Z,11.83
2023-01-13T12:20:55.269Z,11.83
2023-01-13T12:21:55.775Z,11.78
2023-01-13T12:22:55.758Z,11.76
2023-01-13T12:23:56.271Z,11.77
2023-01-13T12:24:56.489Z,11.78
2023-01-13T12:25:57.462Z,11.78
2023-01-13T12:26:57.592Z,11.78
2023-01-13T12:27:58.281Z,11.71
2023-01-13T12:28:59.969Z,11.71
2023-01-13T12:30:00.666Z,11.74
2023-01-13T12:31:00.897Z,11.68
2023-01-13T12:32:01.722Z,11.67
2023-01-13T12:33:01.681Z,11.63
2023-01-13T12:34:02.983Z,11.56
2023-01-13T12:35:03.742Z,11.63
2023-01-13T12:36:04.109Z,11.65
2023-01-13T12:37:05.613Z,11.68
2023-01-13T12:38:05.879Z,11.73
2023-01-13T12:39:05.822Z,11.73
2023-01-13T12:40:06.313Z,11.73
2023-01-13T12:41:07.803Z,11.74
2023-01-13T12:42:07.836Z,11.71
2023-01-13T12:43:08.360Z,11.85
2023-01-13T12:44:08.303Z,11.85
2023-01-13T12:45:09.367Z,11.86
2023-01-13T12:46:09.812Z,11.81
2023-01-13T12:47:10.253Z,11.8
2023-01-13T12:48:10.209Z,11.89
2023-01-13T12:49:10.883Z,11.86
2023-01-13T12:50:11.148Z,11.86
2023-01-13T12:51:11.821Z,11.8
2023-01-13T12:52:11.801Z,11.81
2023-01-13T12:53:11.814Z,11.83
2023-01-13T12:54:12.775Z,11.77
2023-01-13T12:55:14.045Z,11.8
2023-01-13T12:56:13.744Z,11.77
2023-01-13T12:57:14.663Z,11.65
2023-01-13T12:58:15.165Z,11.63
2023-01-13T12:59:14.819Z,11.55
2023-01-13T13:00:16.108Z,11.52
2023-01-13T13:01:17.086Z,11.4
2023-01-13T13:02:18.095Z,11.33
2023-01-13T13:03:20.179Z,11.12
2023-01-13T13:04:19.465Z,10.95
2023-01-13T13:05:19.753Z,10.8
2023-01-13T13:06:20.328Z,10.75
2023-01-13T13:07:20.581Z,10.64
2023-01-13T13:08:20.812Z,10.53
2023-01-13T13:09:21.355Z,10.51
2023-01-13T13:10:21.854Z,10.45
2023-01-13T13:11:23.066Z,10.23
2023-01-13T13:12:23.410Z,10.21
2023-01-13T13:13:23.717Z,10.1
2023-01-13T13:14:24.985Z,9.94
2023-01-13T13:15:25.531Z,9.84
2023-01-13T13:16:26.882Z,9.73
2023-01-13T13:17:27.318Z,9.66
2023-01-13T13:18:28.086Z,9.52
2023-01-13T13:19:29.346Z,9.51
2023-01-13T13:20:30.703Z,9.34
2023-01-13T13:21:31.246Z,9.39
2023-01-13T13:22:31.460Z,9.3
2023-01-13T13:23:31.423Z,9.21
2023-01-13T13:24:32.405Z,9.11
2023-01-13T13:25:32.952Z,9.13
2023-01-13T13:26:33.900Z,9.13